1879 NOT_NAMED (1879080S11064)


IBTrACS version v04r00. Visit IBTrACS website for data access.
Please direct all questions to the IBTrACS Q and A forum

Storm track - Intensity - Wind Radii - Intensity Data - Source Data - All data

Summary Information

Storm ID 1879080S11064
Start Mar 20 18Z
End Apr 1 06Z
ATCF IDs
Track status Best track data.

Storm track plot

Map of storm track

Intensity plots

No Intensity information for this storm


Radial wind information

No radial wind information for this storm


Position and Intensity Table

BASIN ISO_TIME_________ NATURE LAT LON
degrees north degrees east
SI 1879-03-20 18:00:00 NR -10.50 63.80
SI 21:00:00 NR -10.62 63.69
SI 1879-03-21 00:00:00 NR -10.74 63.58
SI 03:00:00 NR -10.87 63.45
SI 06:00:00 NR -10.88 63.46
SI 09:00:00 NR -10.92 63.42
SI 12:00:00 NR -10.97 63.35
SI 15:00:00 NR -11.03 63.26
SI 18:00:00 NR -11.16 63.10
SI 21:00:00 NR -11.27 62.95
SI 1879-03-22 00:00:00 NR -11.40 62.78
SI 03:00:00 NR -11.54 62.60
SI 06:00:00 NR -11.70 62.40
SI 09:00:00 NR -11.88 62.16
SI 12:00:00 NR -12.09 61.89
SI 15:00:00 NR -12.30 61.62
SI 18:00:00 NR -12.52 61.36
SI 21:00:00 NR -12.73 61.13
SI 1879-03-23 00:00:00 NR -12.94 60.92
SI 03:00:00 NR -13.16 60.70
SI 06:00:00 NR -13.40 60.45
SI 09:00:00 NR -13.65 60.15
SI 12:00:00 NR -13.93 59.82
SI 15:00:00 NR -14.22 59.48
SI 18:00:00 NR -14.52 59.14
SI 21:00:00 NR -14.84 58.82
SI 1879-03-24 00:00:00 NR -15.17 58.51
SI 03:00:00 NR -15.51 58.20
SI 06:00:00 NR -15.85 57.90
SI 09:00:00 NR -16.17 57.58
SI 12:00:00 NR -16.49 57.27
SI 15:00:00 NR -16.82 56.96
SI 18:00:00 NR -17.15 56.66
SI 21:00:00 NR -17.51 56.36
SI 1879-03-25 00:00:00 NR -17.87 56.09
SI 03:00:00 NR -18.22 55.83
SI 06:00:00 NR -18.55 55.60
SI 09:00:00 NR -18.85 55.38
SI 12:00:00 NR -19.13 55.19
SI 15:00:00 NR -19.39 55.01
SI 18:00:00 NR -19.66 54.85
SI 21:00:00 NR -19.95 54.68
SI 1879-03-26 00:00:00 NR -20.24 54.53
SI 03:00:00 NR -20.51 54.41
SI 06:00:00 NR -20.75 54.30
SI 09:00:00 NR -20.96 54.22
SI 12:00:00 NR -21.14 54.16
SI 15:00:00 NR -21.30 54.11
SI 18:00:00 NR -21.45 54.08
SI 21:00:00 NR -21.56 54.05
SI 1879-03-27 00:00:00 NR -21.67 54.03
SI 03:00:00 NR -21.79 54.01
SI 06:00:00 NR -21.95 54.00
SI 09:00:00 NR -22.16 53.98
SI 12:00:00 NR -22.41 53.96
SI 15:00:00 NR -22.67 53.96
SI 18:00:00 NR -22.94 53.98
SI 21:00:00 NR -23.20 54.01
SI 1879-03-28 00:00:00 NR -23.47 54.07
SI 03:00:00 NR -23.75 54.15
SI 06:00:00 NR -24.05 54.25
SI 09:00:00 NR -24.39 54.35
SI 12:00:00 NR -24.74 54.47
SI 15:00:00 NR -25.11 54.61
SI 18:00:00 NR -25.48 54.76
SI 21:00:00 NR -25.84 54.90
SI 1879-03-29 00:00:00 NR -26.21 55.05
SI 03:00:00 NR -26.57 55.23
SI 06:00:00 NR -26.95 55.45
SI 09:00:00 NR -27.33 55.70
SI 12:00:00 NR -27.71 55.98
SI 15:00:00 NR -28.10 56.29
SI 18:00:00 NR -28.47 56.62
SI 21:00:00 NR -28.83 56.97
SI 1879-03-30 00:00:00 NR -28.95 57.10
SI 03:00:00 NR -28.99 57.13
SI 06:00:00 NR -28.92 57.02
SI 09:00:00 NR -28.72 56.69
SI 12:00:00 NR -29.16 57.13
SI 15:00:00 NR -29.61 57.60
SI 18:00:00 NR -30.04 58.08
SI 21:00:00 NR -30.46 58.56
SI 1879-03-31 00:00:00 NR -30.85 59.01
SI 03:00:00 NR -31.20 59.43
SI 06:00:00 NR -31.50 59.80
SI 09:00:00 NR -31.74 60.10
SI 12:00:00 NR -31.93 60.33
SI 15:00:00 NR -32.08 60.51
SI 18:00:00 NR -32.19 60.65
SI 21:00:00 NR -32.27 60.74
SI 1879-04-01 00:00:00 NR -32.32 60.81
SI 03:00:00 NR -32.37 60.86
SI 06:00:00 NR -32.40 60.90

Source Information

Agency Information
USA
TOKYO
CMA
HKO
NEWDELHI
REUNION WMO-Best-Tracks.txt:Line=1178:xxxx879174
BOM
NADI
WELLINGTON
DS824
TD9636 cons_worldwide_trop_cyclone_18710101-19891231-005:Line=1591
TD9635
NEUMANN
MLC

All available IBTrACS Data

SEASON BASIN SUBBASIN ISO_TIME_________ NATURE LAT LON WMO AGENCY DIST2LAND LANDFALL IFLAG USA SSHS REUNION LAT REUNION LON REUNION TYPE REUNION TNUM TD9636 LAT TD9636 LON TD9636 STAGE STORM SPEED STORM DIR
Year degrees north degrees east km km 1 degrees north degrees east 1 degrees north degrees east kts degrees
1879 SI MM 1879-03-20 18:00:00 NR -10.50 63.80 1257 1242 __________O___ -1 -10.50 63.80 7 3 221
1879 SI MM 21:00:00 NR -10.62 63.69 1242 1227 __________P___ -1 -10.62 63.69 7 3 222
1879 SI MM 1879-03-21 00:00:00 NR -10.74 63.58 1227 1202 __________P___ -1 -10.74 63.58 7 3 224
1879 SI MM 03:00:00 NR -10.87 63.45 1196 1196 __________P___ -1 -10.87 63.45 7 2 221
1879 SI MM 06:00:00 NR -10.88 63.46 reunion 1202 1196 _____O____O___ -1 -10.40 64.10 99 9.90 -11.00 63.30 7 1 224
1879 SI MM 09:00:00 NR -10.92 63.42 1196 1187 _____P____P___ -1 -10.47 64.00 99 -11.14 63.13 7 1 231
1879 SI MM 12:00:00 NR -10.97 63.35 1181 1181 _____P____P___ -1 -10.55 63.91 99 -11.28 62.93 7 2 233
1879 SI MM 15:00:00 NR -11.03 63.26 1181 1161 _____P____P___ -1 -10.63 63.81 99 -11.44 62.72 7 3 233
1879 SI MM 18:00:00 NR -11.16 63.10 1151 1136 _____P____O___ -1 -10.71 63.70 99 -11.60 62.50 7 4 232
1879 SI MM 21:00:00 NR -11.27 62.95 1131 1116 _____P____P___ -1 -10.80 63.59 99 -11.75 62.30 7 4 232
1879 SI MM 1879-03-22 00:00:00 NR -11.40 62.78 1116 1095 _____P____P___ -1 -10.89 63.47 99 -11.91 62.09 7 4 232
1879 SI MM 03:00:00 NR -11.54 62.60 1095 1065 _____P____P___ -1 -10.99 63.34 99 -12.09 61.86 7 5 231
1879 SI MM 06:00:00 NR -11.70 62.40 reunion 1065 1035 _____O____O___ -1 -11.10 63.20 99 9.90 -12.30 61.60 7 6 232
1879 SI MM 09:00:00 NR -11.88 62.16 1035 1001 _____P____P___ -1 -11.22 63.05 99 -12.55 61.27 7 6 232
1879 SI MM 12:00:00 NR -12.09 61.89 1001 967 _____P____P___ -1 -11.35 62.88 99 -12.83 60.90 7 7 232
1879 SI MM 15:00:00 NR -12.30 61.62 967 937 _____P____P___ -1 -11.49 62.70 99 -13.12 60.53 7 7 230
1879 SI MM 18:00:00 NR -12.52 61.36 937 904 _____P____O___ -1 -11.64 62.51 99 -13.40 60.20 7 6 228
1879 SI MM 21:00:00 NR -12.73 61.13 904 874 _____P____P___ -1 -11.81 62.31 99 -13.64 59.96 7 6 226
1879 SI MM 1879-03-23 00:00:00 NR -12.94 60.92 874 846 _____P____P___ -1 -11.99 62.08 99 -13.88 59.76 7 6 224
1879 SI MM 03:00:00 NR -13.16 60.70 835 806 _____P____P___ -1 -12.19 61.85 99 -14.13 59.55 7 7 225
1879 SI MM 06:00:00 NR -13.40 60.45 reunion 806 774 _____O____O___ -1 -12.40 61.60 99 9.90 -14.40 59.30 7 7 227
1879 SI MM 09:00:00 NR -13.65 60.15 760 728 _____P____P___ -1 -12.61 61.34 99 -14.70 58.96 7 8 229
1879 SI MM 12:00:00 NR -13.93 59.82 728 687 _____P____P___ -1 -12.84 61.07 99 -15.01 58.57 7 9 229
1879 SI MM 15:00:00 NR -14.22 59.48 687 646 _____P____P___ -1 -13.09 60.78 99 -15.35 58.18 7 9 228
1879 SI MM 18:00:00 NR -14.52 59.14 644 604 _____P____O___ -1 -13.35 60.48 99 -15.70 57.80 7 9 226
1879 SI MM 21:00:00 NR -14.84 58.82 604 554 _____P____P___ -1 -13.62 60.17 99 -16.07 57.47 7 9 223
1879 SI MM 1879-03-24 00:00:00 NR -15.17 58.51 554 517 _____P____P___ -1 -13.90 59.85 99 -16.45 57.17 7 9 222
1879 SI MM 03:00:00 NR -15.51 58.20 517 481 _____P____P___ -1 -14.19 59.53 99 -16.83 56.88 7 9 221
1879 SI MM 06:00:00 NR -15.85 57.90 reunion 481 436 _____O____O___ -1 -14.50 59.20 99 9.90 -17.20 56.60 7 9 222
1879 SI MM 09:00:00 NR -16.17 57.58 436 403 _____P____P___ -1 -14.81 58.86 99 -17.54 56.31 7 9 223
1879 SI MM 12:00:00 NR -16.49 57.27 403 372 _____P____P___ -1 -15.13 58.51 99 -17.86 56.02 7 9 223
1879 SI MM 15:00:00 NR -16.82 56.96 372 346 _____P____P___ -1 -15.47 58.16 99 -18.18 55.75 7 9 222
1879 SI MM 18:00:00 NR -17.15 56.66 335 313 _____P____O___ -1 -15.81 57.81 99 -18.50 55.50 7 9 219
1879 SI MM 21:00:00 NR -17.51 56.36 313 291 _____P____P___ -1 -16.15 57.47 99 -18.87 55.26 7 9 217
1879 SI MM 1879-03-25 00:00:00 NR -17.87 56.09 286 270 _____P____P___ -1 -16.50 57.13 99 -19.24 55.05 7 9 216
1879 SI MM 03:00:00 NR -18.22 55.83 277 260 _____P____P___ -1 -16.85 56.81 99 -19.59 54.86 7 8 214
1879 SI MM 06:00:00 NR -18.55 55.60 reunion 267 246 _____O____O___ -1 -17.20 56.50 99 9.90 -19.90 54.70 7 8 214
1879 SI MM 09:00:00 NR -18.85 55.38 246 212 _____P____P___ -1 -17.56 56.20 99 -20.14 54.57 7 7 214
1879 SI MM 12:00:00 NR -19.13 55.19 212 181 _____P____P___ -1 -17.91 55.91 99 -20.34 54.46 7 7 213
1879 SI MM 15:00:00 NR -19.39 55.01 181 162 _____P____P___ -1 -18.27 55.65 99 -20.52 54.38 7 6 211
1879 SI MM 18:00:00 NR -19.66 54.85 154 137 _____P____O___ -1 -18.62 55.39 99 -20.70 54.30 7 6 209
1879 SI MM 21:00:00 NR -19.95 54.68 128 115 _____P____P___ -1 -18.97 55.16 99 -20.94 54.21 7 6 207
1879 SI MM 1879-03-26 00:00:00 NR -20.24 54.53 122 106 _____P____P___ -1 -19.30 54.95 99 -21.18 54.12 7 6 205
1879 SI MM 03:00:00 NR -20.51 54.41 106 100 _____P____P___ -1 -19.61 54.76 99 -21.41 54.05 7 6 203
1879 SI MM 06:00:00 NR -20.75 54.30 reunion 103 96 _____O____O___ -1 -19.90 54.60 99 9.90 -21.60 54.00 7 5 201
1879 SI MM 09:00:00 NR -20.96 54.22 104 103 _____P____P___ -1 -20.18 54.45 99 -21.74 53.98 7 4 200
1879 SI MM 12:00:00 NR -21.14 54.16 103 103 _____P____P___ -1 -20.43 54.33 99 -21.84 53.98 7 4 195
1879 SI MM 15:00:00 NR -21.30 54.11 116 116 _____P____P___ -1 -20.67 54.24 99 -21.93 53.99 7 3 192
1879 SI MM 18:00:00 NR -21.45 54.08 118 118 _____P____O___ -1 -20.89 54.16 99 -22.00 54.00 7 3 191
1879 SI MM 21:00:00 NR -21.56 54.05 126 126 _____P____P___ -1 -21.09 54.10 99 -22.03 54.00 7 2 194
1879 SI MM 1879-03-27 00:00:00 NR -21.67 54.03 141 141 _____P____P___ -1 -21.28 54.06 99 -22.05 53.99 7 2 188
1879 SI MM 03:00:00 NR -21.79 54.01 145 145 _____P____P___ -1 -21.45 54.03 99 -22.13 53.99 7 3 0
1879 SI MM 06:00:00 NR -21.95 54.00 reunion 150 155 _____O____O___ -1 -21.60 54.00 99 9.90 -22.30 54.00 7 4 185
1879 SI MM 09:00:00 NR -22.16 53.98 167 167 _____P____P___ -1 -21.70 53.95 99 -22.62 54.00 7 5 185
1879 SI MM 12:00:00 NR -22.41 53.96 181 181 _____P____P___ -1 -21.77 53.91 99 -23.04 54.01 7 5 183
1879 SI MM 15:00:00 NR -22.67 53.96 206 206 _____P____P___ -1 -21.83 53.87 99 -23.52 54.04 7 5 178
1879 SI MM 18:00:00 NR -22.94 53.98 223 223 _____P____O___ -1 -21.89 53.85 99 -24.00 54.10 7 5 173
1879 SI MM 21:00:00 NR -23.20 54.01 251 251 _____P____P___ -1 -21.96 53.84 99 -24.44 54.18 7 5 170
1879 SI MM 1879-03-28 00:00:00 NR -23.47 54.07 275 275 _____P____P___ -1 -22.06 53.85 99 -24.87 54.30 7 6 167
1879 SI MM 03:00:00 NR -23.75 54.15 301 301 _____P____P___ -1 -22.21 53.87 99 -25.30 54.44 7 6 164
1879 SI MM 06:00:00 NR -24.05 54.25 reunion 318 322 _____O____O___ -1 -22.40 53.90 99 9.90 -25.70 54.60 7 7 164
1879 SI MM 09:00:00 NR -24.39 54.35 357 357 _____P____P___ -1 -22.70 53.93 99 -26.08 54.77 7 7 164
1879 SI MM 12:00:00 NR -24.74 54.47 385 385 _____P____P___ -1 -23.05 53.98 99 -26.44 54.97 7 8 162
1879 SI MM 15:00:00 NR -25.11 54.61 425 425 _____P____P___ -1 -23.44 54.04 99 -26.78 55.18 7 8 161
1879 SI MM 18:00:00 NR -25.48 54.76 465 465 _____P____O___ -1 -23.86 54.12 99 -27.10 55.40 7 8 161
1879 SI MM 21:00:00 NR -25.84 54.90 496 496 _____P____P___ -1 -24.29 54.21 99 -27.39 55.59 7 8 160
1879 SI MM 1879-03-29 00:00:00 NR -26.21 55.05 538 538 _____P____P___ -1 -24.74 54.32 99 -27.68 55.78 7 8 158
1879 SI MM 03:00:00 NR -26.57 55.23 582 581 _____P____P___ -1 -25.18 54.45 99 -27.97 56.02 7 8 155
1879 SI MM 06:00:00 NR -26.95 55.45 reunion 614 625 _____O____O___ -1 -25.60 54.60 99 9.90 -28.30 56.30 7 9 151
1879 SI MM 09:00:00 NR -27.33 55.70 659 659 _____P____P___ -1 -25.95 54.73 99 -28.70 56.66 7 9 148
1879 SI MM 12:00:00 NR -27.71 55.98 705 705 _____P____P___ -1 -26.29 54.88 99 -29.14 57.07 7 9 146
1879 SI MM 15:00:00 NR -28.10 56.29 751 751 _____P____P___ -1 -26.62 55.05 99 -29.58 57.53 7 10 143
1879 SI MM 18:00:00 NR -28.47 56.62 799 799 _____P____O___ -1 -26.95 55.25 99 -30.00 58.00 7 9 141
1879 SI MM 21:00:00 NR -28.83 56.97 838 838 _____P____P___ -1 -27.27 55.47 99 -30.39 58.47 7 6 139
1879 SI MM 1879-03-30 00:00:00 NR -28.95 57.10 862 862 _____P____P___ -1 -27.61 55.71 99 -30.74 58.95 7 2 138
1879 SI MM 03:00:00 NR -28.99 57.13 862 849 _____P____P___ -1 -27.95 55.99 99 -31.08 59.42 7 1 293
1879 SI MM 06:00:00 NR -28.92 57.02 reunion 849 823 _____O____O___ -1 -28.30 56.30 99 9.90 -31.40 59.90 7 5 305
1879 SI MM 09:00:00 NR -28.72 56.69 823 823 _____P________ -1 -28.72 56.69 99 7 3 157
1879 SI MM 12:00:00 NR -29.16 57.13 884 884 _____P________ -1 -29.16 57.13 99 7 12 138
1879 SI MM 15:00:00 NR -29.61 57.60 937 937 _____P________ -1 -29.61 57.60 99 7 12 137
1879 SI MM 18:00:00 NR -30.04 58.08 992 992 _____P________ -1 -30.04 58.08 99 12 136
1879 SI MM 21:00:00 NR -30.46 58.56 1059 1059 _____P________ -1 -30.46 58.56 99 11 135
1879 SI MM 1879-03-31 00:00:00 NR -30.85 59.01 1113 1113 _____P________ -1 -30.85 59.01 99 11 134
1879 SI MM 03:00:00 NR -31.20 59.43 1157 1157 _____P________ -1 -31.20 59.43 99 9 134
1879 SI MM 06:00:00 NR -31.50 59.80 reunion 1202 1202 _____O________ -1 -31.50 59.80 99 9.90 8 134
1879 SI MM 09:00:00 NR -31.74 60.10 1233 1233 _____P________ -1 -31.74 60.10 99 6 134
1879 SI MM 12:00:00 NR -31.93 60.33 1261 1261 _____P________ -1 -31.93 60.33 99 5 134
1879 SI MM 15:00:00 NR -32.08 60.51 1289 1289 _____P________ -1 -32.08 60.51 99 4 134
1879 SI MM 18:00:00 NR -32.19 60.65 1303 1303 _____P________ -1 -32.19 60.65 99 3 134
1879 SI MM 21:00:00 NR -32.27 60.74 1317 1317 _____P________ -1 -32.27 60.74 99 2 135
1879 SI MM 1879-04-01 00:00:00 NR -32.32 60.81 1321 1321 _____P________ -1 -32.32 60.81 99 1 136
1879 SI MM 03:00:00 NR -32.37 60.86 1335 1335 _____P________ -1 -32.37 60.86 99 1 134
1879 SI MM 06:00:00 NR -32.40 60.90 reunion 1335 _____O________ -1 -32.40 60.90 99 9.90 1 129